Kezdőlap
METAR-TAF:

METAR-TAF

Repülőterek :

Tri-County Regional Airport

Lone Rock, Wisconsin, Amerikai Egyesült Államok

földrajzi szélesség: 43-12-43N, földrajzi hosszúság: 090-10-53W, magasság: 219 m

Jelenlegi meteorológiai megfigyelések

A jelentés 16 perccel ezelõtt készült, 07:16 UTC
Nyugat-északnyugati szél 9 kt
Hőmérséklet 1°C
Páratartalom 86%
Légköri nyomás 1011 hPa
Látótávolság: 9.7 km
Borult 800 lábon
Párásság

METAR: KLNR 180716Z AUTO 29009KT 6SM BR OVC008 01/M01 A2984 RMK AO2 CIG 007V011 T00061011

Idő: 01:32 (07:32 UTC)


TAF: hiányzik

Meteorológiai megfigyelések és előrejelzések több, mint 4000 repülőtéren (METAR és TAF jelentéseket).

A térképen piros és sárga pontok jelzik az elérhető meteorológiai állomásokat.

Mozgassa az egeret a pont fölött, hogy megjelenjen az állomás neve.

Azután kattintson az időjárási megfigyelések és előrejelzések megtekintéséhez.

A térkép megváltoztatása: kattintson a fekete keresztel jelölt zöld gombra ráközelítéshez, a vonallal jelölt zöld gombra távolításhoz, vagy a zöld nyilakra a szomszédos térképek eléréséhez.


METAR-TAF: